sensor_id;sensor_type;location;lat;lon;timestamp;temperature;humidity
54960;DHT22;40860;51.710;8.736;2023-04-06T00:02:43;4.40;61.70
54960;DHT22;40860;51.710;8.736;2023-04-06T00:06:46;4.40;61.90
54960;DHT22;40860;51.710;8.736;2023-04-06T00:10:50;4.30;62.00
54960;DHT22;40860;51.710;8.736;2023-04-06T00:14:53;4.30;62.10
54960;DHT22;40860;51.710;8.736;2023-04-06T00:18:56;4.30;62.50
54960;DHT22;40860;51.710;8.736;2023-04-06T00:22:58;4.30;62.40
54960;DHT22;40860;51.710;8.736;2023-04-06T00:27:02;4.20;62.70
54960;DHT22;40860;51.710;8.736;2023-04-06T00:31:05;4.20;63.00
54960;DHT22;40860;51.710;8.736;2023-04-06T00:35:08;4.20;62.80
54960;DHT22;40860;51.710;8.736;2023-04-06T00:39:11;4.10;62.90
54960;DHT22;40860;51.710;8.736;2023-04-06T00:43:16;4.10;63.40
54960;DHT22;40860;51.710;8.736;2023-04-06T00:47:18;4.10;63.90
54960;DHT22;40860;51.710;8.736;2023-04-06T00:51:22;4.00;64.00
54960;DHT22;40860;51.710;8.736;2023-04-06T00:55:25;4.00;64.20
54960;DHT22;40860;51.710;8.736;2023-04-06T00:59:30;4.00;64.40
54960;DHT22;40860;51.710;8.736;2023-04-06T01:03:35;3.90;64.60
54960;DHT22;40860;51.710;8.736;2023-04-06T01:07:39;3.90;65.00
54960;DHT22;40860;51.710;8.736;2023-04-06T01:11:49;3.80;65.20
54960;DHT22;40860;51.710;8.736;2023-04-06T01:15:58;3.80;65.20
54960;DHT22;40860;51.710;8.736;2023-04-06T01:20:08;3.80;65.50
54960;DHT22;40860;51.710;8.736;2023-04-06T01:24:13;3.70;65.60
54960;DHT22;40860;51.710;8.736;2023-04-06T01:28:34;3.70;65.70
54960;DHT22;40860;51.710;8.736;2023-04-06T01:32:54;3.70;65.70
54960;DHT22;40860;51.710;8.736;2023-04-06T01:37:09;3.70;65.70
54960;DHT22;40860;51.710;8.736;2023-04-06T01:41:13;3.70;65.70
54960;DHT22;40860;51.710;8.736;2023-04-06T01:45:23;3.70;65.50
54960;DHT22;40860;51.710;8.736;2023-04-06T01:49:29;3.70;65.30
54960;DHT22;40860;51.710;8.736;2023-04-06T01:53:32;3.70;65.00
54960;DHT22;40860;51.710;8.736;2023-04-06T01:57:41;3.80;64.60
54960;DHT22;40860;51.710;8.736;2023-04-06T02:01:51;3.80;64.40
54960;DHT22;40860;51.710;8.736;2023-04-06T02:05:56;3.80;64.30
54960;DHT22;40860;51.710;8.736;2023-04-06T02:10:11;3.80;63.90
54960;DHT22;40860;51.710;8.736;2023-04-06T02:14:16;3.80;63.90
54960;DHT22;40860;51.710;8.736;2023-04-06T02:18:25;3.80;63.80
54960;DHT22;40860;51.710;8.736;2023-04-06T02:22:27;3.80;63.70
54960;DHT22;40860;51.710;8.736;2023-04-06T02:26:30;3.80;63.90
54960;DHT22;40860;51.710;8.736;2023-04-06T02:30:34;3.80;63.90
54960;DHT22;40860;51.710;8.736;2023-04-06T02:34:38;3.70;64.00
54960;DHT22;40860;51.710;8.736;2023-04-06T02:38:42;3.70;64.30
54960;DHT22;40860;51.710;8.736;2023-04-06T02:42:45;3.70;64.30
54960;DHT22;40860;51.710;8.736;2023-04-06T02:46:52;3.70;64.10
54960;DHT22;40860;51.710;8.736;2023-04-06T02:50:56;3.60;64.40
54960;DHT22;40860;51.710;8.736;2023-04-06T03:01:06;3.60;64.30
54960;DHT22;40860;51.710;8.736;2023-04-06T03:29:23;3.10;67.00
54960;DHT22;40860;51.710;8.736;2023-04-06T03:33:27;3.10;67.10
54960;DHT22;40860;51.710;8.736;2023-04-06T03:38:37;3.00;67.30
54960;DHT22;40860;51.710;8.736;2023-04-06T03:43:31;2.90;68.90
54960;DHT22;40860;51.710;8.736;2023-04-06T03:47:34;2.70;69.30
54960;DHT22;40860;51.710;8.736;2023-04-06T03:51:40;2.70;70.10
54960;DHT22;40860;51.710;8.736;2023-04-06T03:55:43;2.50;71.00
54960;DHT22;40860;51.710;8.736;2023-04-06T03:59:47;2.40;71.70
54960;DHT22;40860;51.710;8.736;2023-04-06T04:03:49;2.40;72.60
54960;DHT22;40860;51.710;8.736;2023-04-06T04:07:53;2.30;73.20
54960;DHT22;40860;51.710;8.736;2023-04-06T04:12:00;2.20;72.90
54960;DHT22;40860;51.710;8.736;2023-04-06T04:16:06;2.20;73.90
54960;DHT22;40860;51.710;8.736;2023-04-06T04:20:10;2.10;73.60
54960;DHT22;40860;51.710;8.736;2023-04-06T04:24:15;2.30;72.80
54960;DHT22;40860;51.710;8.736;2023-04-06T04:28:24;2.50;71.90
54960;DHT22;40860;51.710;8.736;2023-04-06T04:32:34;2.70;70.80
54960;DHT22;40860;51.710;8.736;2023-04-06T04:36:43;2.80;70.00
54960;DHT22;40860;51.710;8.736;2023-04-06T04:40:58;3.00;69.20
54960;DHT22;40860;51.710;8.736;2023-04-06T04:45:08;3.00;68.60
54960;DHT22;40860;51.710;8.736;2023-04-06T04:49:16;3.20;68.00
54960;DHT22;40860;51.710;8.736;2023-04-06T04:53:25;3.20;67.60
54960;DHT22;40860;51.710;8.736;2023-04-06T04:57:36;3.30;67.20
54960;DHT22;40860;51.710;8.736;2023-04-06T05:01:43;3.40;66.90
54960;DHT22;40860;51.710;8.736;2023-04-06T05:06:09;3.40;66.50
54960;DHT22;40860;51.710;8.736;2023-04-06T05:10:18;3.50;65.80
54960;DHT22;40860;51.710;8.736;2023-04-06T05:14:32;3.60;65.40
54960;DHT22;40860;51.710;8.736;2023-04-06T05:18:47;3.60;65.40
54960;DHT22;40860;51.710;8.736;2023-04-06T05:22:57;3.60;65.30
54960;DHT22;40860;51.710;8.736;2023-04-06T05:27:05;3.70;64.90
54960;DHT22;40860;51.710;8.736;2023-04-06T05:31:09;3.80;64.50
54960;DHT22;40860;51.710;8.736;2023-04-06T05:35:20;3.90;64.10
54960;DHT22;40860;51.710;8.736;2023-04-06T05:39:34;3.90;63.90
54960;DHT22;40860;51.710;8.736;2023-04-06T05:43:39;4.10;63.40
54960;DHT22;40860;51.710;8.736;2023-04-06T05:47:44;4.10;62.80
54960;DHT22;40860;51.710;8.736;2023-04-06T05:51:58;4.30;62.50
54960;DHT22;40860;51.710;8.736;2023-04-06T05:56:08;4.40;62.10
54960;DHT22;40860;51.710;8.736;2023-04-06T06:08:38;5.40;59.30
54960;DHT22;40860;51.710;8.736;2023-04-06T06:12:51;6.30;58.50
54960;DHT22;40860;51.710;8.736;2023-04-06T06:16:58;7.00;57.50
54960;DHT22;40860;51.710;8.736;2023-04-06T06:21:05;7.40;56.40
54960;DHT22;40860;51.710;8.736;2023-04-06T06:37:36;11.60;49.60
54960;DHT22;40860;51.710;8.736;2023-04-06T06:50:45;11.40;45.20
54960;DHT22;40860;51.710;8.736;2023-04-06T07:22:24;12.20;44.50
54960;DHT22;40860;51.710;8.736;2023-04-06T07:28:04;12.10;44.10
54960;DHT22;40860;51.710;8.736;2023-04-06T07:38:16;12.70;43.50
54960;DHT22;40860;51.710;8.736;2023-04-06T07:43:48;13.20;43.30
54960;DHT22;40860;51.710;8.736;2023-04-06T07:53:10;13.40;42.00
54960;DHT22;40860;51.710;8.736;2023-04-06T07:57:33;13.10;41.60
54960;DHT22;40860;51.710;8.736;2023-04-06T08:02:26;13.00;42.10
54960;DHT22;40860;51.710;8.736;2023-04-06T08:07:12;13.50;42.00
54960;DHT22;40860;51.710;8.736;2023-04-06T08:11:41;14.00;41.90
54960;DHT22;40860;51.710;8.736;2023-04-06T08:16:07;14.60;40.10
54960;DHT22;40860;51.710;8.736;2023-04-06T08:20:32;14.60;39.70
54960;DHT22;40860;51.710;8.736;2023-04-06T08:24:57;14.70;38.50
54960;DHT22;40860;51.710;8.736;2023-04-06T08:29:10;14.20;39.20
54960;DHT22;40860;51.710;8.736;2023-04-06T08:33:28;14.20;40.30
54960;DHT22;40860;51.710;8.736;2023-04-06T08:38:01;14.50;40.00
54960;DHT22;40860;51.710;8.736;2023-04-06T08:42:39;14.50;40.90
54960;DHT22;40860;51.710;8.736;2023-04-06T08:47:02;14.60;40.10
54960;DHT22;40860;51.710;8.736;2023-04-06T08:51:48;14.80;41.20
54960;DHT22;40860;51.710;8.736;2023-04-06T08:56:15;14.90;40.10
54960;DHT22;40860;51.710;8.736;2023-04-06T09:00:18;14.30;40.90
54960;DHT22;40860;51.710;8.736;2023-04-06T09:04:23;14.40;41.30
54960;DHT22;40860;51.710;8.736;2023-04-06T09:08:26;14.50;41.50
54960;DHT22;40860;51.710;8.736;2023-04-06T09:12:30;14.70;41.50
54960;DHT22;40860;51.710;8.736;2023-04-06T09:16:39;14.80;41.70
54960;DHT22;40860;51.710;8.736;2023-04-06T09:20:43;14.80;41.80
54960;DHT22;40860;51.710;8.736;2023-04-06T09:24:47;15.00;40.70
54960;DHT22;40860;51.710;8.736;2023-04-06T09:28:52;14.80;41.10
54960;DHT22;40860;51.710;8.736;2023-04-06T09:32:57;14.70;41.50
54960;DHT22;40860;51.710;8.736;2023-04-06T09:37:12;14.80;42.20
54960;DHT22;40860;51.710;8.736;2023-04-06T09:41:21;15.30;41.60
54960;DHT22;40860;51.710;8.736;2023-04-06T09:45:26;15.60;40.80
54960;DHT22;40860;51.710;8.736;2023-04-06T09:49:31;15.90;40.30
54960;DHT22;40860;51.710;8.736;2023-04-06T09:53:39;16.00;40.60
54960;DHT22;40860;51.710;8.736;2023-04-06T09:57:50;16.10;40.20
54960;DHT22;40860;51.710;8.736;2023-04-06T10:01:56;15.70;39.60
54960;DHT22;40860;51.710;8.736;2023-04-06T10:06:05;15.70;40.30
54960;DHT22;40860;51.710;8.736;2023-04-06T10:10:11;15.90;39.80
54960;DHT22;40860;51.710;8.736;2023-04-06T10:14:15;16.00;40.40
54960;DHT22;40860;51.710;8.736;2023-04-06T10:18:18;16.50;40.30
54960;DHT22;40860;51.710;8.736;2023-04-06T10:22:28;16.30;40.40
54960;DHT22;40860;51.710;8.736;2023-04-06T10:26:34;16.00;40.70
54960;DHT22;40860;51.710;8.736;2023-04-06T10:30:42;15.90;41.10
54960;DHT22;40860;51.710;8.736;2023-04-06T10:34:45;15.50;40.90
54960;DHT22;40860;51.710;8.736;2023-04-06T10:38:54;15.60;40.60
54960;DHT22;40860;51.710;8.736;2023-04-06T10:43:09;15.50;41.20
54960;DHT22;40860;51.710;8.736;2023-04-06T10:47:21;15.20;41.60
54960;DHT22;40860;51.710;8.736;2023-04-06T10:51:25;14.70;41.40
54960;DHT22;40860;51.710;8.736;2023-04-06T10:55:29;14.40;42.10
54960;DHT22;40860;51.710;8.736;2023-04-06T10:59:34;14.80;42.60
54960;DHT22;40860;51.710;8.736;2023-04-06T11:03:43;14.70;41.20
54960;DHT22;40860;51.710;8.736;2023-04-06T11:07:46;14.60;41.60
54960;DHT22;40860;51.710;8.736;2023-04-06T11:11:49;14.70;41.40
54960;DHT22;40860;51.710;8.736;2023-04-06T11:15:53;14.70;42.20
54960;DHT22;40860;51.710;8.736;2023-04-06T11:19:56;14.80;41.70
54960;DHT22;40860;51.710;8.736;2023-04-06T11:24:09;14.80;42.00
54960;DHT22;40860;51.710;8.736;2023-04-06T11:28:12;14.70;41.70
54960;DHT22;40860;51.710;8.736;2023-04-06T11:32:23;14.90;42.40
54960;DHT22;40860;51.710;8.736;2023-04-06T11:36:27;15.00;41.10
54960;DHT22;40860;51.710;8.736;2023-04-06T11:40:31;14.90;41.20
54960;DHT22;40860;51.710;8.736;2023-04-06T11:44:36;14.80;40.70
54960;DHT22;40860;51.710;8.736;2023-04-06T11:48:45;14.60;41.20
54960;DHT22;40860;51.710;8.736;2023-04-06T11:52:58;14.80;42.00
54960;DHT22;40860;51.710;8.736;2023-04-06T11:57:01;15.30;41.50
54960;DHT22;40860;51.710;8.736;2023-04-06T12:01:04;15.40;41.90
54960;DHT22;40860;51.710;8.736;2023-04-06T12:05:09;15.70;40.90
54960;DHT22;40860;51.710;8.736;2023-04-06T12:09:12;15.60;40.20
54960;DHT22;40860;51.710;8.736;2023-04-06T12:13:15;15.60;41.20
54960;DHT22;40860;51.710;8.736;2023-04-06T12:17:18;15.90;38.30
54960;DHT22;40860;51.710;8.736;2023-04-06T12:21:23;16.10;37.90
54960;DHT22;40860;51.710;8.736;2023-04-06T12:25:26;16.30;37.20
54960;DHT22;40860;51.710;8.736;2023-04-06T12:29:30;16.20;36.70
54960;DHT22;40860;51.710;8.736;2023-04-06T12:33:32;16.20;37.00
54960;DHT22;40860;51.710;8.736;2023-04-06T12:37:38;16.30;36.90
54960;DHT22;40860;51.710;8.736;2023-04-06T12:41:41;16.40;36.50
54960;DHT22;40860;51.710;8.736;2023-04-06T12:45:44;16.30;36.10
54960;DHT22;40860;51.710;8.736;2023-04-06T12:49:47;16.30;36.10
54960;DHT22;40860;51.710;8.736;2023-04-06T12:53:51;16.30;36.10
54960;DHT22;40860;51.710;8.736;2023-04-06T12:57:54;16.40;35.50
54960;DHT22;40860;51.710;8.736;2023-04-06T13:01:57;16.20;35.40
54960;DHT22;40860;51.710;8.736;2023-04-06T13:06:00;16.30;36.10
54960;DHT22;40860;51.710;8.736;2023-04-06T13:10:06;16.20;34.10
54960;DHT22;40860;51.710;8.736;2023-04-06T13:14:09;16.40;35.00
54960;DHT22;40860;51.710;8.736;2023-04-06T13:18:12;16.50;35.50
54960;DHT22;40860;51.710;8.736;2023-04-06T13:22:15;16.60;35.70
54960;DHT22;40860;51.710;8.736;2023-04-06T13:26:19;16.50;35.70
54960;DHT22;40860;51.710;8.736;2023-04-06T13:30:23;16.30;35.00
54960;DHT22;40860;51.710;8.736;2023-04-06T13:34:26;16.30;35.90
54960;DHT22;40860;51.710;8.736;2023-04-06T13:38:29;16.40;36.30
54960;DHT22;40860;51.710;8.736;2023-04-06T13:42:34;16.40;37.00
54960;DHT22;40860;51.710;8.736;2023-04-06T13:46:37;16.30;36.50
54960;DHT22;40860;51.710;8.736;2023-04-06T13:50:40;16.20;36.90
54960;DHT22;40860;51.710;8.736;2023-04-06T13:54:43;16.30;36.70
54960;DHT22;40860;51.710;8.736;2023-04-06T13:58:47;16.30;37.00
54960;DHT22;40860;51.710;8.736;2023-04-06T14:02:50;16.50;37.10
54960;DHT22;40860;51.710;8.736;2023-04-06T14:06:53;16.60;37.10
54960;DHT22;40860;51.710;8.736;2023-04-06T14:10:56;16.50;37.10
54960;DHT22;40860;51.710;8.736;2023-04-06T14:15:00;16.30;36.90
54960;DHT22;40860;51.710;8.736;2023-04-06T14:19:03;16.20;37.70
54960;DHT22;40860;51.710;8.736;2023-04-06T14:23:06;16.10;38.60
54960;DHT22;40860;51.710;8.736;2023-04-06T14:27:08;16.10;38.70
54960;DHT22;40860;51.710;8.736;2023-04-06T14:31:13;16.10;38.30
54960;DHT22;40860;51.710;8.736;2023-04-06T14:35:18;16.10;37.90
54960;DHT22;40860;51.710;8.736;2023-04-06T14:39:21;15.90;37.60
54960;DHT22;40860;51.710;8.736;2023-04-06T14:43:24;15.80;37.90
54960;DHT22;40860;51.710;8.736;2023-04-06T14:47:28;16.00;38.40
54960;DHT22;40860;51.710;8.736;2023-04-06T14:51:33;16.10;37.30
54960;DHT22;40860;51.710;8.736;2023-04-06T14:55:43;16.20;37.90
54960;DHT22;40860;51.710;8.736;2023-04-06T15:00:23;16.50;37.60
54960;DHT22;40860;51.710;8.736;2023-04-06T15:04:40;16.70;37.70
54960;DHT22;40860;51.710;8.736;2023-04-06T15:09:05;16.80;36.60
54960;DHT22;40860;51.710;8.736;2023-04-06T15:13:23;16.70;36.80
54960;DHT22;40860;51.710;8.736;2023-04-06T15:17:36;16.80;37.20
54960;DHT22;40860;51.710;8.736;2023-04-06T15:22:01;17.10;37.40
54960;DHT22;40860;51.710;8.736;2023-04-06T15:26:14;17.40;37.10
54960;DHT22;40860;51.710;8.736;2023-04-06T15:30:43;17.50;37.00
54960;DHT22;40860;51.710;8.736;2023-04-06T15:35:27;17.20;37.30
54960;DHT22;40860;51.710;8.736;2023-04-06T15:39:41;17.00;37.90
54960;DHT22;40860;51.710;8.736;2023-04-06T15:43:51;17.10;38.30
54960;DHT22;40860;51.710;8.736;2023-04-06T15:48:15;16.80;37.00
54960;DHT22;40860;51.710;8.736;2023-04-06T15:52:32;16.50;37.70
54960;DHT22;40860;51.710;8.736;2023-04-06T15:57:11;16.20;37.70
54960;DHT22;40860;51.710;8.736;2023-04-06T16:01:30;15.80;38.30
54960;DHT22;40860;51.710;8.736;2023-04-06T16:05:49;15.50;38.70
54960;DHT22;40860;51.710;8.736;2023-04-06T16:10:14;15.30;39.30
54960;DHT22;40860;51.710;8.736;2023-04-06T16:14:35;15.10;40.30
54960;DHT22;40860;51.710;8.736;2023-04-06T16:19:03;15.00;40.60
54960;DHT22;40860;51.710;8.736;2023-04-06T16:23:16;14.90;41.00
54960;DHT22;40860;51.710;8.736;2023-04-06T16:27:40;14.80;41.20
54960;DHT22;40860;51.710;8.736;2023-04-06T16:37:50;14.60;41.20
54960;DHT22;40860;51.710;8.736;2023-04-06T16:42:35;14.60;42.20
54960;DHT22;40860;51.710;8.736;2023-04-06T16:46:54;14.50;42.10
54960;DHT22;40860;51.710;8.736;2023-04-06T16:51:18;14.40;42.10
54960;DHT22;40860;51.710;8.736;2023-04-06T16:55:49;14.30;43.10
54960;DHT22;40860;51.710;8.736;2023-04-06T17:00:26;14.20;43.30
54960;DHT22;40860;51.710;8.736;2023-04-06T17:04:50;14.10;43.70
54960;DHT22;40860;51.710;8.736;2023-04-06T17:09:15;14.00;44.00
54960;DHT22;40860;51.710;8.736;2023-04-06T17:13:50;13.90;44.10
54960;DHT22;40860;51.710;8.736;2023-04-06T17:18:06;13.80;44.50
54960;DHT22;40860;51.710;8.736;2023-04-06T17:22:29;13.70;44.90
54960;DHT22;40860;51.710;8.736;2023-04-06T17:26:46;13.60;45.10
54960;DHT22;40860;51.710;8.736;2023-04-06T17:31:10;13.60;45.60
54960;DHT22;40860;51.710;8.736;2023-04-06T17:35:24;13.40;45.60
54960;DHT22;40860;51.710;8.736;2023-04-06T17:40:01;13.40;46.40
54960;DHT22;40860;51.710;8.736;2023-04-06T17:44:10;13.30;46.40
54960;DHT22;40860;51.710;8.736;2023-04-06T17:48:30;13.10;47.20
54960;DHT22;40860;51.710;8.736;2023-04-06T17:52:33;13.00;47.60
54960;DHT22;40860;51.710;8.736;2023-04-06T17:56:36;12.80;48.30
54960;DHT22;40860;51.710;8.736;2023-04-06T18:00:39;12.70;48.40
54960;DHT22;40860;51.710;8.736;2023-04-06T18:04:43;12.60;49.00
54960;DHT22;40860;51.710;8.736;2023-04-06T18:08:47;12.50;49.20
54960;DHT22;40860;51.710;8.736;2023-04-06T18:12:50;12.40;49.50
54960;DHT22;40860;51.710;8.736;2023-04-06T18:16:53;12.30;49.60
54960;DHT22;40860;51.710;8.736;2023-04-06T18:21:03;12.20;49.80
54960;DHT22;40860;51.710;8.736;2023-04-06T18:25:08;12.00;50.00
54960;DHT22;40860;51.710;8.736;2023-04-06T18:29:14;11.90;50.20
54960;DHT22;40860;51.710;8.736;2023-04-06T18:33:18;11.80;50.80
54960;DHT22;40860;51.710;8.736;2023-04-06T18:37:27;11.70;51.10
54960;DHT22;40860;51.710;8.736;2023-04-06T18:41:31;11.70;51.40
54960;DHT22;40860;51.710;8.736;2023-04-06T18:45:35;11.60;51.40
54960;DHT22;40860;51.710;8.736;2023-04-06T18:49:39;11.60;51.30
54960;DHT22;40860;51.710;8.736;2023-04-06T18:53:43;11.50;51.50
54960;DHT22;40860;51.710;8.736;2023-04-06T18:57:46;11.50;52.10
54960;DHT22;40860;51.710;8.736;2023-04-06T19:01:50;11.50;52.00
54960;DHT22;40860;51.710;8.736;2023-04-06T19:05:55;11.40;52.50
54960;DHT22;40860;51.710;8.736;2023-04-06T19:10:00;11.40;53.70
54960;DHT22;40860;51.710;8.736;2023-04-06T19:14:04;11.30;53.60
54960;DHT22;40860;51.710;8.736;2023-04-06T19:18:10;11.20;53.50
54960;DHT22;40860;51.710;8.736;2023-04-06T19:22:15;11.20;53.90
54960;DHT22;40860;51.710;8.736;2023-04-06T19:26:22;11.20;54.20
54960;DHT22;40860;51.710;8.736;2023-04-06T19:30:30;11.10;54.40
54960;DHT22;40860;51.710;8.736;2023-04-06T19:34:35;11.10;54.80
54960;DHT22;40860;51.710;8.736;2023-04-06T19:38:41;11.10;55.30
54960;DHT22;40860;51.710;8.736;2023-04-06T19:42:47;11.00;55.70
54960;DHT22;40860;51.710;8.736;2023-04-06T19:46:49;11.00;56.20
54960;DHT22;40860;51.710;8.736;2023-04-06T19:50:54;10.90;56.40
54960;DHT22;40860;51.710;8.736;2023-04-06T19:54:57;10.90;56.90
54960;DHT22;40860;51.710;8.736;2023-04-06T19:59:02;10.80;57.40
54960;DHT22;40860;51.710;8.736;2023-04-06T20:03:12;10.80;57.80
54960;DHT22;40860;51.710;8.736;2023-04-06T20:07:16;10.70;58.00
54960;DHT22;40860;51.710;8.736;2023-04-06T20:11:20;10.70;59.00
54960;DHT22;40860;51.710;8.736;2023-04-06T20:15:25;10.70;58.80
54960;DHT22;40860;51.710;8.736;2023-04-06T20:19:28;10.60;59.00
54960;DHT22;40860;51.710;8.736;2023-04-06T20:23:31;10.60;59.20
54960;DHT22;40860;51.710;8.736;2023-04-06T20:27:36;10.60;59.70
54960;DHT22;40860;51.710;8.736;2023-04-06T20:31:40;10.60;59.60
54960;DHT22;40860;51.710;8.736;2023-04-06T20:35:43;10.50;59.70
54960;DHT22;40860;51.710;8.736;2023-04-06T20:39:46;10.50;59.80
54960;DHT22;40860;51.710;8.736;2023-04-06T20:43:49;10.50;60.20
54960;DHT22;40860;51.710;8.736;2023-04-06T20:47:54;10.50;60.50
54960;DHT22;40860;51.710;8.736;2023-04-06T20:51:57;10.40;60.50
54960;DHT22;40860;51.710;8.736;2023-04-06T20:56:02;10.40;61.30
54960;DHT22;40860;51.710;8.736;2023-04-06T21:00:05;10.40;61.60
54960;DHT22;40860;51.710;8.736;2023-04-06T21:04:12;10.30;61.90
54960;DHT22;40860;51.710;8.736;2023-04-06T21:08:23;10.30;62.80
54960;DHT22;40860;51.710;8.736;2023-04-06T21:12:27;10.20;62.90
54960;DHT22;40860;51.710;8.736;2023-04-06T21:16:32;10.20;63.10
54960;DHT22;40860;51.710;8.736;2023-04-06T21:20:42;10.20;63.80
54960;DHT22;40860;51.710;8.736;2023-04-06T21:24:50;10.10;64.10
54960;DHT22;40860;51.710;8.736;2023-04-06T21:28:56;10.10;64.90
54960;DHT22;40860;51.710;8.736;2023-04-06T21:33:01;10.00;65.40
54960;DHT22;40860;51.710;8.736;2023-04-06T21:37:08;10.00;65.60
54960;DHT22;40860;51.710;8.736;2023-04-06T21:41:13;10.00;66.60
54960;DHT22;40860;51.710;8.736;2023-04-06T21:45:19;9.90;67.30
54960;DHT22;40860;51.710;8.736;2023-04-06T21:49:26;9.90;68.00
54960;DHT22;40860;51.710;8.736;2023-04-06T21:53:33;9.80;69.00
54960;DHT22;40860;51.710;8.736;2023-04-06T21:57:38;9.80;69.50
54960;DHT22;40860;51.710;8.736;2023-04-06T22:01:43;9.70;70.40
54960;DHT22;40860;51.710;8.736;2023-04-06T22:05:46;9.70;70.70
54960;DHT22;40860;51.710;8.736;2023-04-06T22:09:50;9.70;71.30
54960;DHT22;40860;51.710;8.736;2023-04-06T22:13:54;9.60;72.60
54960;DHT22;40860;51.710;8.736;2023-04-06T22:17:57;9.50;73.30
54960;DHT22;40860;51.710;8.736;2023-04-06T22:22:01;9.50;73.90
54960;DHT22;40860;51.710;8.736;2023-04-06T22:26:07;9.50;75.00
54960;DHT22;40860;51.710;8.736;2023-04-06T22:30:10;9.40;76.00
54960;DHT22;40860;51.710;8.736;2023-04-06T22:34:13;9.40;77.10
54960;DHT22;40860;51.710;8.736;2023-04-06T22:38:16;9.30;79.20
54960;DHT22;40860;51.710;8.736;2023-04-06T22:42:20;9.20;80.70
54960;DHT22;40860;51.710;8.736;2023-04-06T22:46:23;9.10;82.60
54960;DHT22;40860;51.710;8.736;2023-04-06T22:50:26;9.00;84.30
54960;DHT22;40860;51.710;8.736;2023-04-06T22:54:29;8.90;85.80
54960;DHT22;40860;51.710;8.736;2023-04-06T22:58:34;8.80;86.90
54960;DHT22;40860;51.710;8.736;2023-04-06T23:02:37;8.80;88.90
54960;DHT22;40860;51.710;8.736;2023-04-06T23:06:40;8.70;89.60
54960;DHT22;40860;51.710;8.736;2023-04-06T23:10:43;8.70;89.80
54960;DHT22;40860;51.710;8.736;2023-04-06T23:14:47;8.70;89.90
54960;DHT22;40860;51.710;8.736;2023-04-06T23:18:50;8.70;90.10
54960;DHT22;40860;51.710;8.736;2023-04-06T23:22:53;8.60;90.40
54960;DHT22;40860;51.710;8.736;2023-04-06T23:26:55;8.60;90.70
54960;DHT22;40860;51.710;8.736;2023-04-06T23:31:00;8.50;91.10
54960;DHT22;40860;51.710;8.736;2023-04-06T23:35:02;8.50;91.30
54960;DHT22;40860;51.710;8.736;2023-04-06T23:39:05;8.40;91.60
54960;DHT22;40860;51.710;8.736;2023-04-06T23:43:08;8.40;91.80
54960;DHT22;40860;51.710;8.736;2023-04-06T23:47:12;8.30;92.00
54960;DHT22;40860;51.710;8.736;2023-04-06T23:51:15;8.20;92.20
54960;DHT22;40860;51.710;8.736;2023-04-06T23:55:18;8.20;92.80
54960;DHT22;40860;51.710;8.736;2023-04-06T23:59:20;8.20;92.80
